LIBQ  Monte Scuro  Airport

Italy

Add Bookmark
ICAO LIBQ
Type Airport
Status Operational
Latitude
39° 19' 12" N
39.320000
Longitude
16° 22' 47" E
16.380000
Local (DST + 2) UTC (GMT + 1)
May 23, 2015 10:45 May 23, 2015 08:45
Sunrise-Sunset Local UTC
Begin Civil Twilight 05:01 03:01
Sunrise 05:32 03:32
Sunset 08:09 18:09
End Civil Twilight 08:40 18:40
VFR
VFR
MVFR
MVFR
IFR
VFR
LIFR
VFR
Unknown
Unavailable

Current Weather

METAR Observed LIFR
LIBQ 230755Z 29018KT 0000 -RA FG VV/// 05/05 Q1011 Sat, May 23, 2015 @ 07:55 UTC
(50 Minutes ago)
Low Instrument Flight Rules
Wind Visibility Conditions
290° at 18 knots (33 kph) 0 m
  • Light Rain
  • Fog
Temperatures Readings Precipitation
Current Temp
5°C
41°F
Dewpoint
5°C
41°F
Humidity 100%
Altimeter 29.85" Hg
Sea Level Pressure 1,011 mb
Field Elevation
1,720 m
5,643 ft
None Recorded

Additional weather within a 92.6km radius of LIBQ

Map ICAO Location
LICA 47.6km S/SW (195°)
LIBC 70.2km E/SE (121°)
VFR
VFR
MVFR
MVFR
IFR
VFR
LIFR
VFR
Unknown
Unavailable
-
-

CheckWX.com is intended as a tool to help pilots better visualize weather data. It is not intended as a substitute for an official weather briefing obtained from a Flight Service Station. CheckWX.com does not meet the FAA requirements for an official pre-flight weather briefing. Therefore, it's important that pilots still call and obtain an official FSS pre-flight weather briefing.

© 2007-2015 CheckWX.com
08:45:52 UTC